createdAt,value
2022-08-21T00:02:27.258Z,7.50
2022-08-21T00:04:57.839Z,9.67
2022-08-21T00:07:27.660Z,6.30
2022-08-21T00:09:56.889Z,8.87
2022-08-21T00:12:26.885Z,8.67
2022-08-21T00:14:57.053Z,11.20
2022-08-21T00:17:26.520Z,8.77
2022-08-21T00:19:54.984Z,10.33
2022-08-21T00:22:23.448Z,8.77
2022-08-21T00:24:51.938Z,10.70
2022-08-21T00:27:20.552Z,9.07
2022-08-21T00:29:50.423Z,9.60
2022-08-21T00:32:23.320Z,8.80
2022-08-21T00:34:52.157Z,10.90
2022-08-21T00:37:21.146Z,10.53
2022-08-21T00:39:49.908Z,7.87
2022-08-21T00:42:20.960Z,8.10
2022-08-21T00:44:52.603Z,9.37
2022-08-21T00:47:21.945Z,10.80
2022-08-21T00:49:50.509Z,7.87
2022-08-21T00:52:24.805Z,8.17
2022-08-21T00:54:54.722Z,8.07
2022-08-21T00:57:33.611Z,10.53
2022-08-21T01:00:11.631Z,11.97
2022-08-21T01:02:40.477Z,8.03
2022-08-21T01:05:11.827Z,10.50
2022-08-21T01:07:40.867Z,10.00
2022-08-21T01:10:13.373Z,9.20
2022-08-21T01:12:53.692Z,12.47
2022-08-21T01:15:25.943Z,8.10
2022-08-21T01:17:55.591Z,9.30
2022-08-21T01:20:32.343Z,7.90
2022-08-21T01:23:04.287Z,8.83
2022-08-21T01:25:33.414Z,8.33
2022-08-21T01:28:16.070Z,9.73
2022-08-21T01:30:45.919Z,9.17
2022-08-21T01:33:14.613Z,8.07
2022-08-21T01:35:43.053Z,8.27
2022-08-21T01:38:13.183Z,9.20
2022-08-21T01:40:41.846Z,8.10
2022-08-21T01:43:10.320Z,8.23
2022-08-21T01:45:38.888Z,8.17
2022-08-21T01:48:07.424Z,9.30
2022-08-21T01:50:36.817Z,10.47
2022-08-21T01:53:05.849Z,7.80
2022-08-21T01:55:35.991Z,8.10
2022-08-21T01:58:04.558Z,9.03
2022-08-21T02:00:33.297Z,9.50
2022-08-21T02:03:01.776Z,8.10
2022-08-21T02:05:30.259Z,8.43
2022-08-21T02:07:59.134Z,9.93
2022-08-21T02:10:32.275Z,8.03
2022-08-21T02:13:03.047Z,7.87
2022-08-21T02:15:32.833Z,10.50
2022-08-21T02:18:04.432Z,8.17
2022-08-21T02:20:36.283Z,8.80
2022-08-21T02:23:07.145Z,9.03
2022-08-21T02:25:36.084Z,8.93
2022-08-21T02:28:10.084Z,8.10
2022-08-21T02:30:44.775Z,9.27
2022-08-21T02:33:14.253Z,8.80
2022-08-21T02:35:44.491Z,11.63
2022-08-21T02:38:17.625Z,9.77
2022-08-21T02:40:51.040Z,9.83
2022-08-21T02:43:22.905Z,9.77
2022-08-21T02:45:52.937Z,12.00
2022-08-21T02:48:24.217Z,8.20
2022-08-21T02:50:57.928Z,9.83
2022-08-21T02:53:27.372Z,9.97
2022-08-21T02:55:59.331Z,7.97
2022-08-21T02:58:36.004Z,8.83
2022-08-21T03:01:05.393Z,10.43
2022-08-21T03:03:36.169Z,8.20
2022-08-21T03:06:06.334Z,12.80
2022-08-21T03:08:36.505Z,8.70
2022-08-21T03:11:06.032Z,15.50
2022-08-21T03:13:37.466Z,10.33
2022-08-21T03:16:09.813Z,7.63
2022-08-21T03:18:39.914Z,10.60
2022-08-21T03:21:08.870Z,10.27
2022-08-21T03:23:37.491Z,11.63
2022-08-21T03:26:06.473Z,7.83
2022-08-21T03:28:37.897Z,7.53
2022-08-21T03:31:06.842Z,8.40
2022-08-21T03:33:35.337Z,7.70
2022-08-21T03:36:09.461Z,7.20
2022-08-21T03:38:39.378Z,9.40
2022-08-21T03:41:08.716Z,8.73
2022-08-21T03:43:39.503Z,8.63
2022-08-21T03:46:09.283Z,8.60
2022-08-21T03:48:39.257Z,7.60
2022-08-21T03:51:08.667Z,9.43
2022-08-21T03:53:37.382Z,8.30
2022-08-21T03:56:07.182Z,7.93
2022-08-21T03:58:36.991Z,10.27
2022-08-21T04:01:08.169Z,8.03
2022-08-21T04:03:38.254Z,8.13
2022-08-21T04:06:08.361Z,7.73
2022-08-21T04:08:37.326Z,7.67
2022-08-21T04:11:06.769Z,7.43
2022-08-21T04:13:35.179Z,8.13
2022-08-21T04:16:15.126Z,10.53
2022-08-21T04:18:44.432Z,11.57
2022-08-21T04:21:14.216Z,8.00
2022-08-21T04:23:42.714Z,8.73
2022-08-21T04:26:11.441Z,8.70
2022-08-21T04:28:39.952Z,12.90
2022-08-21T04:31:08.758Z,7.47
2022-08-21T04:33:38.546Z,8.53
2022-08-21T04:36:08.865Z,8.53
2022-08-21T04:38:37.764Z,9.27
2022-08-21T04:41:07.342Z,8.40
2022-08-21T04:43:36.102Z,9.67
2022-08-21T04:46:04.661Z,7.87
2022-08-21T04:48:33.865Z,10.70
2022-08-21T04:51:09.816Z,11.93
2022-08-21T04:53:41.818Z,8.47
2022-08-21T04:56:16.644Z,8.47
2022-08-21T04:58:45.507Z,9.43
2022-08-21T05:01:19.887Z,8.03
2022-08-21T05:03:51.794Z,9.60
2022-08-21T05:06:22.363Z,9.23
2022-08-21T05:09:01.547Z,10.40
2022-08-21T05:11:32.187Z,9.70
2022-08-21T05:14:00.771Z,9.00
2022-08-21T05:16:37.412Z,8.67
2022-08-21T05:19:06.847Z,9.43
2022-08-21T05:21:38.006Z,8.43
2022-08-21T05:24:06.651Z,10.30
2022-08-21T05:26:45.298Z,8.57
2022-08-21T05:29:16.274Z,9.57
2022-08-21T05:31:46.040Z,9.10
2022-08-21T05:34:16.187Z,8.07
2022-08-21T05:36:47.004Z,11.40
2022-08-21T05:39:15.966Z,10.00
2022-08-21T05:41:44.603Z,10.87
2022-08-21T05:44:13.097Z,12.00
2022-08-21T05:46:41.554Z,10.73
2022-08-21T05:49:10.226Z,11.30
2022-08-21T05:51:39.164Z,11.63
2022-08-21T05:54:09.037Z,11.00
2022-08-21T05:56:37.568Z,11.27
2022-08-21T05:59:08.607Z,11.10
2022-08-21T06:01:37.661Z,11.47
2022-08-21T06:04:06.730Z,10.57
2022-08-21T06:06:35.959Z,11.83
2022-08-21T06:09:05.646Z,10.90
2022-08-21T06:11:36.351Z,11.10
2022-08-21T06:14:07.303Z,11.53
2022-08-21T06:16:35.803Z,11.77
2022-08-21T06:19:04.258Z,12.80
2022-08-21T06:21:32.804Z,11.53
2022-08-21T06:24:01.257Z,10.93
2022-08-21T06:26:30.227Z,12.00
2022-08-21T06:29:00.401Z,13.57
2022-08-21T06:31:30.786Z,10.80
2022-08-21T06:33:59.540Z,11.37
2022-08-21T06:36:28.185Z,10.50
2022-08-21T06:38:57.173Z,10.43
2022-08-21T06:41:27.021Z,9.60
2022-08-21T06:43:56.765Z,12.67
2022-08-21T06:46:28.896Z,9.80
2022-08-21T06:48:58.787Z,9.77
2022-08-21T06:51:27.651Z,10.30
2022-08-21T06:53:56.721Z,10.07
2022-08-21T06:56:27.946Z,12.70
2022-08-21T06:58:56.371Z,11.00
2022-08-21T07:01:28.944Z,15.03
2022-08-21T07:03:57.423Z,11.20
2022-08-21T07:06:25.909Z,10.60
2022-08-21T07:08:54.316Z,10.90
2022-08-21T07:11:27.968Z,10.40
2022-08-21T07:13:57.510Z,10.67
2022-08-21T07:16:27.638Z,11.63
2022-08-21T07:18:56.167Z,10.60
2022-08-21T07:21:26.212Z,9.87
2022-08-21T07:23:55.198Z,10.97
2022-08-21T07:26:25.292Z,10.23
2022-08-21T07:28:53.927Z,10.57
2022-08-21T07:31:25.351Z,10.33
2022-08-21T07:33:55.815Z,10.20
2022-08-21T07:36:24.877Z,10.20
2022-08-21T07:38:53.295Z,9.50
2022-08-21T07:41:25.522Z,9.13
2022-08-21T07:43:54.426Z,11.87
2022-08-21T07:46:22.948Z,9.43
2022-08-21T07:48:51.556Z,11.10
2022-08-21T07:51:28.323Z,9.37
2022-08-21T07:53:59.753Z,11.30
2022-08-21T07:56:29.064Z,11.43
2022-08-21T07:58:58.601Z,9.77
2022-08-21T08:01:27.539Z,10.30
2022-08-21T08:03:56.057Z,10.63
2022-08-21T08:06:27.021Z,11.60
2022-08-21T08:08:55.502Z,8.80
2022-08-21T08:11:23.985Z,11.07
2022-08-21T08:13:54.605Z,10.30
2022-08-21T08:16:23.187Z,10.20
2022-08-21T08:18:52.463Z,10.60
2022-08-21T08:21:21.945Z,12.33
2022-08-21T08:23:52.032Z,10.13
2022-08-21T08:26:20.561Z,10.40
2022-08-21T08:28:49.069Z,9.33
2022-08-21T08:31:17.900Z,10.10
2022-08-21T08:33:46.356Z,9.27
2022-08-21T08:36:19.980Z,9.97
2022-08-21T08:38:49.981Z,9.30
2022-08-21T08:41:23.901Z,11.57
2022-08-21T08:44:05.001Z,11.43
2022-08-21T08:46:40.838Z,10.37
2022-08-21T08:49:22.458Z,11.87
2022-08-21T08:52:00.480Z,9.43
2022-08-21T08:54:34.959Z,10.90
2022-08-21T08:57:12.105Z,9.73
2022-08-21T08:59:45.959Z,10.60
2022-08-21T09:02:16.871Z,9.17
2022-08-21T09:04:48.541Z,10.50
2022-08-21T09:07:27.954Z,7.37
2022-08-21T09:10:14.855Z,9.00
2022-08-21T09:12:56.307Z,9.27
2022-08-21T09:15:34.351Z,8.00
2022-08-21T09:18:22.643Z,8.37
2022-08-21T09:21:05.389Z,10.90
2022-08-21T09:23:46.317Z,7.80
2022-08-21T09:26:18.549Z,7.17
2022-08-21T09:28:54.763Z,8.47
2022-08-21T09:31:30.590Z,7.00
2022-08-21T09:34:04.059Z,6.40
2022-08-21T09:36:41.614Z,11.13
2022-08-21T09:39:12.112Z,6.87
2022-08-21T09:41:41.731Z,7.90
2022-08-21T09:44:11.597Z,8.60
2022-08-21T09:46:40.076Z,7.67
2022-08-21T09:49:10.428Z,4.87
2022-08-21T09:51:54.807Z,6.50
2022-08-21T09:54:30.812Z,5.27
2022-08-21T09:57:24.839Z,5.47
2022-08-21T09:59:55.353Z,6.20
2022-08-21T10:02:30.350Z,5.07
2022-08-21T10:05:02.044Z,6.40
2022-08-21T10:07:34.573Z,7.10
2022-08-21T10:10:07.101Z,5.57
2022-08-21T10:12:47.299Z,9.17
2022-08-21T10:15:25.359Z,6.77
2022-08-21T10:18:04.126Z,5.90
2022-08-21T10:20:41.436Z,5.07
2022-08-21T10:23:28.652Z,5.97
2022-08-21T10:26:13.192Z,8.90
2022-08-21T10:28:54.031Z,7.20
2022-08-21T10:31:35.091Z,5.27
2022-08-21T10:34:22.043Z,5.37
2022-08-21T10:37:08.326Z,8.87
2022-08-21T10:39:47.656Z,5.87
2022-08-21T10:42:37.579Z,5.80
2022-08-21T10:45:28.581Z,6.30
2022-08-21T10:48:06.503Z,7.37
2022-08-21T10:50:42.966Z,6.77
2022-08-21T10:53:37.864Z,5.97
2022-08-21T10:56:18.939Z,6.77
2022-08-21T10:59:23.876Z,9.50
2022-08-21T11:01:59.651Z,6.00
2022-08-21T11:04:47.022Z,7.33
2022-08-21T11:07:24.976Z,5.77
2022-08-21T11:10:05.821Z,5.93
2022-08-21T11:12:43.512Z,5.73
2022-08-21T11:15:30.039Z,5.57
2022-08-21T11:18:06.552Z,6.40
2022-08-21T11:20:45.806Z,8.50
2022-08-21T11:23:21.376Z,6.20
2022-08-21T11:25:55.748Z,7.17
2022-08-21T11:28:29.436Z,6.63
2022-08-21T11:31:13.452Z,6.53
2022-08-21T11:34:02.711Z,6.87
2022-08-21T11:36:44.063Z,5.33
2022-08-21T11:39:28.144Z,4.70
2022-08-21T11:42:08.978Z,4.23
2022-08-21T11:44:51.600Z,5.40
2022-08-21T11:47:34.534Z,8.20
2022-08-21T11:50:34.924Z,3.63
2022-08-21T11:53:13.386Z,6.67
2022-08-21T11:55:46.730Z,6.50
2022-08-21T11:58:23.541Z,6.63
2022-08-21T12:00:58.310Z,7.00
2022-08-21T12:03:31.603Z,6.87
2022-08-21T12:06:03.249Z,8.37
2022-08-21T12:08:36.215Z,5.90
2022-08-21T12:11:09.047Z,5.67
2022-08-21T12:13:42.648Z,5.33
2022-08-21T12:16:14.971Z,8.40
2022-08-21T12:18:44.805Z,4.87
2022-08-21T12:21:26.679Z,3.90
2022-08-21T12:24:18.781Z,5.53
2022-08-21T12:26:54.595Z,4.97
2022-08-21T12:29:29.384Z,6.00
2022-08-21T12:32:03.586Z,4.00
2022-08-21T12:34:39.699Z,5.50
2022-08-21T12:37:19.295Z,6.03
2022-08-21T12:39:53.012Z,5.63
2022-08-21T12:42:25.774Z,6.17
2022-08-21T12:45:00.303Z,5.40
2022-08-21T12:47:34.406Z,5.73
2022-08-21T12:50:08.242Z,4.13
2022-08-21T12:52:42.505Z,4.90
2022-08-21T12:55:16.701Z,6.27
2022-08-21T12:57:45.166Z,4.43
2022-08-21T13:00:17.051Z,6.60
2022-08-21T13:02:50.858Z,9.27
2022-08-21T13:05:31.440Z,6.27
2022-08-21T13:08:00.247Z,5.17
2022-08-21T13:10:33.379Z,6.30
2022-08-21T13:13:12.811Z,7.03
2022-08-21T13:15:47.360Z,4.03
2022-08-21T13:18:25.842Z,3.93
2022-08-21T13:21:05.622Z,4.57
2022-08-21T13:23:34.293Z,4.30
2022-08-21T13:26:18.526Z,5.43
2022-08-21T13:28:48.588Z,5.43
2022-08-21T13:31:26.964Z,5.40
2022-08-21T13:33:57.234Z,6.50
2022-08-21T13:36:32.018Z,6.57
2022-08-21T13:39:00.598Z,5.80
2022-08-21T13:41:34.985Z,5.23
2022-08-21T13:44:06.814Z,4.30
2022-08-21T13:46:38.919Z,5.60
2022-08-21T13:49:08.826Z,5.70
2022-08-21T13:51:38.246Z,4.93
2022-08-21T13:54:23.518Z,4.00
2022-08-21T13:56:53.437Z,5.03
2022-08-21T13:59:32.419Z,3.00
2022-08-21T14:02:05.313Z,4.23
2022-08-21T14:04:38.555Z,3.83
2022-08-21T14:07:21.284Z,4.60
2022-08-21T14:09:50.354Z,5.20
2022-08-21T14:12:28.494Z,5.70
2022-08-21T14:14:59.469Z,3.47
2022-08-21T14:17:36.296Z,4.90
2022-08-21T14:20:10.133Z,5.80
2022-08-21T14:22:42.166Z,5.27
2022-08-21T14:25:17.162Z,4.63
2022-08-21T14:27:54.940Z,5.23
2022-08-21T14:30:30.543Z,5.67
2022-08-21T14:32:59.397Z,7.93
2022-08-21T14:35:28.563Z,5.33
2022-08-21T14:37:58.729Z,3.90
2022-08-21T14:40:28.027Z,8.30
2022-08-21T14:42:59.117Z,6.30
2022-08-21T14:45:31.206Z,4.17
2022-08-21T14:48:00.919Z,5.30
2022-08-21T14:50:29.495Z,4.70
2022-08-21T14:52:57.953Z,7.57
2022-08-21T14:55:26.543Z,5.20
2022-08-21T14:57:57.680Z,6.27
2022-08-21T15:00:35.922Z,3.30
2022-08-21T15:03:05.211Z,6.30
2022-08-21T15:05:34.330Z,3.23
2022-08-21T15:08:03.320Z,4.40
2022-08-21T15:10:32.906Z,4.07
2022-08-21T15:13:03.829Z,4.87
2022-08-21T15:15:36.770Z,4.50
2022-08-21T15:18:05.366Z,5.50
2022-08-21T15:20:33.874Z,3.23
2022-08-21T15:23:02.394Z,6.53
2022-08-21T15:25:31.162Z,3.90
2022-08-21T15:28:00.525Z,4.27
2022-08-21T15:30:32.427Z,5.47
2022-08-21T15:33:00.894Z,5.20
2022-08-21T15:35:29.625Z,4.37
2022-08-21T15:37:58.584Z,4.33
2022-08-21T15:40:27.840Z,3.03
2022-08-21T15:43:02.964Z,5.90
2022-08-21T15:45:34.209Z,6.50
2022-08-21T15:48:03.011Z,5.20
2022-08-21T15:50:33.008Z,4.57
2022-08-21T15:53:01.541Z,2.60
2022-08-21T15:55:30.029Z,4.40
2022-08-21T15:58:00.057Z,4.30
2022-08-21T16:00:36.423Z,3.83
2022-08-21T16:03:08.455Z,5.87
2022-08-21T16:05:36.904Z,6.93
2022-08-21T16:08:05.935Z,4.60
2022-08-21T16:10:34.504Z,4.13
2022-08-21T16:13:06.882Z,4.40
2022-08-21T16:15:36.880Z,3.50
2022-08-21T16:18:06.583Z,4.00
2022-08-21T16:20:35.177Z,3.13
2022-08-21T16:23:03.783Z,4.97
2022-08-21T16:25:35.100Z,4.27
2022-08-21T16:28:04.791Z,4.37
2022-08-21T16:30:34.475Z,4.50
2022-08-21T16:33:06.969Z,5.00
2022-08-21T16:35:35.553Z,5.27
2022-08-21T16:38:04.264Z,4.40
2022-08-21T16:40:32.777Z,4.53
2022-08-21T16:43:01.378Z,3.53
2022-08-21T16:45:33.163Z,8.43
2022-08-21T16:48:06.547Z,3.53
2022-08-21T16:50:35.135Z,13.13
2022-08-21T16:53:03.663Z,5.23
2022-08-21T16:55:33.244Z,5.23
2022-08-21T16:58:02.985Z,3.30
2022-08-21T17:00:32.334Z,5.03
2022-08-21T17:03:01.094Z,5.90
2022-08-21T17:05:31.139Z,5.87
2022-08-21T17:07:59.630Z,4.73
2022-08-21T17:10:28.130Z,6.20
2022-08-21T17:12:59.296Z,6.43
2022-08-21T17:15:33.918Z,4.30
2022-08-21T17:18:03.118Z,3.73
2022-08-21T17:20:33.423Z,10.50
2022-08-21T17:23:02.251Z,7.87
2022-08-21T17:25:31.011Z,5.67
2022-08-21T17:27:59.949Z,6.20
2022-08-21T17:30:28.610Z,8.67
2022-08-21T17:32:59.790Z,5.00
2022-08-21T17:35:28.389Z,5.07
2022-08-21T17:37:58.310Z,6.13
2022-08-21T17:40:26.887Z,4.60
2022-08-21T17:42:55.534Z,8.23
2022-08-21T17:45:24.332Z,5.10
2022-08-21T17:47:52.916Z,5.83
2022-08-21T17:50:22.563Z,4.20
2022-08-21T17:52:51.507Z,6.40
2022-08-21T17:55:22.041Z,6.53
2022-08-21T17:57:53.228Z,5.60
2022-08-21T18:00:23.052Z,9.20
2022-08-21T18:03:01.778Z,9.00
2022-08-21T18:05:31.181Z,6.77
2022-08-21T18:08:00.265Z,6.40
2022-08-21T18:10:30.794Z,5.07
2022-08-21T18:13:00.442Z,4.77
2022-08-21T18:15:30.104Z,5.50
2022-08-21T18:17:58.933Z,3.70
2022-08-21T18:20:28.073Z,8.33
2022-08-21T18:22:56.735Z,4.90
2022-08-21T18:25:25.476Z,6.37
2022-08-21T18:27:55.950Z,4.83
2022-08-21T18:30:25.955Z,5.30
2022-08-21T18:32:56.661Z,5.27
2022-08-21T18:35:26.119Z,7.17
2022-08-21T18:37:54.548Z,7.53
2022-08-21T18:40:23.395Z,5.90
2022-08-21T18:42:55.806Z,7.20
2022-08-21T18:45:26.521Z,5.00
2022-08-21T18:47:58.505Z,5.40
2022-08-21T18:50:29.860Z,6.17
2022-08-21T18:52:58.481Z,5.53
2022-08-21T18:55:28.018Z,5.77
2022-08-21T18:57:58.173Z,8.53
2022-08-21T19:00:33.225Z,5.10
2022-08-21T19:03:05.949Z,5.87
2022-08-21T19:05:51.625Z,5.60
2022-08-21T19:08:23.515Z,6.10
2022-08-21T19:10:57.047Z,4.50
2022-08-21T19:13:28.414Z,4.73
2022-08-21T19:16:00.131Z,4.67
2022-08-21T19:18:29.549Z,3.70
2022-08-21T19:20:58.415Z,6.57
2022-08-21T19:23:29.540Z,9.10
2022-08-21T19:26:02.756Z,5.40
2022-08-21T19:28:36.313Z,5.70
2022-08-21T19:31:12.485Z,4.93
2022-08-21T19:33:57.691Z,6.97
2022-08-21T19:36:30.060Z,5.00
2022-08-21T19:38:58.924Z,4.00
2022-08-21T19:41:31.872Z,6.10
2022-08-21T19:44:05.799Z,6.07
2022-08-21T19:46:38.887Z,6.53
2022-08-21T19:49:15.993Z,5.53
2022-08-21T19:51:44.874Z,7.07
2022-08-21T19:54:17.897Z,5.63
2022-08-21T19:56:47.139Z,5.40
2022-08-21T19:59:18.960Z,7.40
2022-08-21T20:01:55.514Z,4.70
2022-08-21T20:04:25.045Z,5.80
2022-08-21T20:06:56.545Z,7.10
2022-08-21T20:09:25.371Z,4.80
2022-08-21T20:11:58.546Z,3.83
2022-08-21T20:14:31.220Z,4.30
2022-08-21T20:17:12.476Z,3.87
2022-08-21T20:19:45.742Z,4.37
2022-08-21T20:22:15.096Z,4.77
2022-08-21T20:24:43.959Z,3.23
2022-08-21T20:27:21.022Z,5.13
2022-08-21T20:29:50.297Z,3.17
2022-08-21T20:32:22.233Z,5.20
2022-08-21T20:34:51.781Z,9.50
2022-08-21T20:40:13.384Z,4.00
2022-08-21T20:42:47.278Z,4.93
2022-08-21T20:45:22.292Z,4.40
2022-08-21T20:47:55.434Z,3.60
2022-08-21T20:50:29.158Z,3.90
2022-08-21T20:53:07.796Z,3.63
2022-08-21T20:55:43.365Z,5.30
2022-08-21T20:58:22.032Z,4.60
2022-08-21T21:01:01.657Z,2.77
2022-08-21T21:03:37.618Z,3.33
2022-08-21T21:06:15.742Z,6.50
2022-08-21T21:08:53.178Z,3.40
2022-08-21T21:11:26.398Z,3.50
2022-08-21T21:13:58.662Z,1.80
2022-08-21T21:16:33.417Z,2.60
2022-08-21T21:19:06.785Z,1.83
2022-08-21T21:21:51.455Z,2.10
2022-08-21T21:27:22.229Z,2.07
2022-08-21T21:29:58.098Z,4.57
2022-08-21T21:32:29.731Z,4.47
2022-08-21T21:34:59.758Z,3.03
2022-08-21T21:37:38.593Z,3.17
2022-08-21T21:40:27.381Z,4.77
2022-08-21T21:43:09.425Z,2.60
2022-08-21T21:45:57.921Z,4.60
2022-08-21T21:49:00.027Z,4.20
2022-08-21T21:51:51.658Z,2.60
2022-08-21T21:54:51.842Z,4.23
2022-08-21T21:57:37.795Z,4.00
2022-08-21T22:00:13.975Z,2.43
2022-08-21T22:02:54.923Z,5.57
2022-08-21T22:05:43.079Z,3.37
2022-08-21T22:08:22.969Z,5.33
2022-08-21T22:11:09.028Z,5.07
2022-08-21T22:14:01.112Z,3.97
2022-08-21T22:16:29.783Z,2.40
2022-08-21T22:19:03.463Z,2.23
2022-08-21T22:21:38.617Z,2.00
2022-08-21T22:24:16.003Z,2.67
2022-08-21T22:26:50.406Z,2.87
2022-08-21T22:29:24.627Z,2.13
2022-08-21T22:32:07.867Z,4.70
2022-08-21T22:34:36.260Z,3.30
2022-08-21T22:37:09.996Z,4.83
2022-08-21T22:39:47.002Z,4.30
2022-08-21T22:42:24.904Z,3.77
2022-08-21T22:44:57.123Z,5.00
2022-08-21T22:47:33.555Z,2.90
2022-08-21T22:50:05.614Z,2.53
2022-08-21T22:52:36.983Z,3.37
2022-08-21T22:55:26.025Z,3.27
2022-08-21T22:58:11.516Z,2.93
2022-08-21T23:00:51.334Z,3.57
2022-08-21T23:03:31.629Z,3.50
2022-08-21T23:06:12.745Z,2.87
2022-08-21T23:08:44.159Z,4.70
2022-08-21T23:11:20.862Z,4.30
2022-08-21T23:13:54.460Z,3.47
2022-08-21T23:16:47.265Z,5.07
2022-08-21T23:19:38.063Z,3.37
2022-08-21T23:22:37.557Z,5.07
2022-08-21T23:25:33.210Z,3.47
2022-08-21T23:28:13.883Z,4.70
2022-08-21T23:30:53.423Z,2.73
2022-08-21T23:33:40.649Z,6.83
2022-08-21T23:36:40.776Z,4.77
2022-08-21T23:39:27.818Z,1.87
2022-08-21T23:42:20.605Z,2.40
2022-08-21T23:45:04.686Z,3.47
2022-08-21T23:47:51.299Z,3.20
2022-08-21T23:50:28.130Z,1.73
2022-08-21T23:53:14.350Z,8.50
2022-08-21T23:56:01.403Z,4.40
2022-08-21T23:58:42.990Z,5.30
